Mission, Texas
Current Conditions -  °F | °C
As of 12:53 PM on Thursday 18 Dec 2014 (Local Time) from KMFE Reporting Station
Haze Haze  
Wind Chill: 68°   Ceiling: 5500
Heat Index: 68°   Visibility: 6mi
Dew Point: 61°   Wind: 7mph
Humidity: 78%   Direction: 280°W
Pressure: 30.02"   Gusts: NA
Location:  26.22°N, 98.32°W
Report Text: KMFE 181853Z 28006KT 6SM HZ OVC055 20/16 A3002 RMK AO2 SLP162 T02000161
Loading
Personal Weather Stations






























Interactive Weather Map New forecast layout! Learn more

10-Day Weather Forecast

Advertisements
Track Severe Weather on mobile